sensor_id;sensor_type;location;lat;lon;timestamp;pressure;altitude;pressure_sealevel;temperature
73673;BMP280;61972;19.480;-99.240;2023-08-31T00:01:11;77508.69;;;34.17
73673;BMP280;61972;19.480;-99.240;2023-08-31T00:03:37;77507.69;;;34.18
73673;BMP280;61972;19.480;-99.240;2023-08-31T00:06:04;77520.50;;;34.20
73673;BMP280;61972;19.480;-99.240;2023-08-31T00:08:33;77516.28;;;34.21
73673;BMP280;61972;19.480;-99.240;2023-08-31T00:11:00;77523.75;;;34.23
73673;BMP280;61972;19.480;-99.240;2023-08-31T00:13:27;77521.69;;;34.24
73673;BMP280;61972;19.480;-99.240;2023-08-31T00:15:56;77528.59;;;34.25
73673;BMP280;61972;19.480;-99.240;2023-08-31T00:18:23;77529.72;;;34.27
73673;BMP280;61972;19.480;-99.240;2023-08-31T00:20:53;77541.41;;;34.28
73673;BMP280;61972;19.480;-99.240;2023-08-31T00:23:19;77542.50;;;34.29
73673;BMP280;61972;19.480;-99.240;2023-08-31T00:25:46;77537.75;;;34.29
73673;BMP280;61972;19.480;-99.240;2023-08-31T00:28:14;77554.22;;;34.30
73673;BMP280;61972;19.480;-99.240;2023-08-31T00:30:41;77557.31;;;34.28
73673;BMP280;61972;19.480;-99.240;2023-08-31T00:33:11;77557.88;;;34.28
73673;BMP280;61972;19.480;-99.240;2023-08-31T00:35:37;77566.84;;;34.27
73673;BMP280;61972;19.480;-99.240;2023-08-31T00:38:03;77562.56;;;34.25
73673;BMP280;61972;19.480;-99.240;2023-08-31T00:40:30;77570.06;;;34.27
73673;BMP280;61972;19.480;-99.240;2023-08-31T00:42:57;77576.34;;;34.25
73673;BMP280;61972;19.480;-99.240;2023-08-31T00:45:23;77580.56;;;34.24
73673;BMP280;61972;19.480;-99.240;2023-08-31T00:47:50;77579.47;;;34.23
73673;BMP280;61972;19.480;-99.240;2023-08-31T00:50:16;77583.69;;;34.22
73673;BMP280;61972;19.480;-99.240;2023-08-31T00:52:42;77583.59;;;34.20
73673;BMP280;61972;19.480;-99.240;2023-08-31T00:55:13;77593.03;;;34.16
73673;BMP280;61972;19.480;-99.240;2023-08-31T00:57:39;77588.19;;;34.14
73673;BMP280;61972;19.480;-99.240;2023-08-31T01:00:06;77599.69;;;34.10
73673;BMP280;61972;19.480;-99.240;2023-08-31T01:02:56;77597.97;;;34.06
73673;BMP280;61972;19.480;-99.240;2023-08-31T01:05:33;77608.41;;;34.01
73673;BMP280;61972;19.480;-99.240;2023-08-31T01:08:37;77607.13;;;33.95
73673;BMP280;61972;19.480;-99.240;2023-08-31T01:13:55;77607.84;;;33.85
73673;BMP280;61972;19.480;-99.240;2023-08-31T01:22:18;77613.91;;;33.76
73673;BMP280;61972;19.480;-99.240;2023-08-31T01:24:47;77620.75;;;33.75
73673;BMP280;61972;19.480;-99.240;2023-08-31T01:27:14;77627.06;;;33.74
73673;BMP280;61972;19.480;-99.240;2023-08-31T01:29:40;77632.81;;;33.72
73673;BMP280;61972;19.480;-99.240;2023-08-31T01:32:07;77633.25;;;33.70
73673;BMP280;61972;19.480;-99.240;2023-08-31T01:34:33;77629.44;;;33.66
73673;BMP280;61972;19.480;-99.240;2023-08-31T01:37:16;77643.13;;;33.64
73673;BMP280;61972;19.480;-99.240;2023-08-31T01:39:56;77636.16;;;33.62
73673;BMP280;61972;19.480;-99.240;2023-08-31T01:42:26;77646.22;;;33.62
73673;BMP280;61972;19.480;-99.240;2023-08-31T01:44:55;77650.97;;;33.61
73673;BMP280;61972;19.480;-99.240;2023-08-31T01:47:23;77654.63;;;33.60
73673;BMP280;61972;19.480;-99.240;2023-08-31T01:49:50;77657.84;;;33.60
73673;BMP280;61972;19.480;-99.240;2023-08-31T01:52:17;77659.94;;;33.60
73673;BMP280;61972;19.480;-99.240;2023-08-31T01:54:43;77663.69;;;33.61
73673;BMP280;61972;19.480;-99.240;2023-08-31T01:57:09;77666.88;;;33.61
73673;BMP280;61972;19.480;-99.240;2023-08-31T01:59:35;77672.19;;;33.61
73673;BMP280;61972;19.480;-99.240;2023-08-31T02:02:01;77666.34;;;33.61
73673;BMP280;61972;19.480;-99.240;2023-08-31T02:04:28;77670.53;;;33.60
73673;BMP280;61972;19.480;-99.240;2023-08-31T02:06:54;77676.94;;;33.61
73673;BMP280;61972;19.480;-99.240;2023-08-31T02:09:20;77678.03;;;33.62
73673;BMP280;61972;19.480;-99.240;2023-08-31T02:11:47;77677.50;;;33.61
73673;BMP280;61972;19.480;-99.240;2023-08-31T02:14:13;77683.88;;;33.62
73673;BMP280;61972;19.480;-99.240;2023-08-31T02:16:39;77680.25;;;33.64
73673;BMP280;61972;19.480;-99.240;2023-08-31T02:19:06;77681.88;;;33.65
73673;BMP280;61972;19.480;-99.240;2023-08-31T02:21:32;77685.09;;;33.66
73673;BMP280;61972;19.480;-99.240;2023-08-31T02:23:58;77688.38;;;33.69
73673;BMP280;61972;19.480;-99.240;2023-08-31T02:26:47;77697.97;;;33.71
73673;BMP280;61972;19.480;-99.240;2023-08-31T02:29:17;77703.94;;;33.74
73673;BMP280;61972;19.480;-99.240;2023-08-31T02:31:43;77698.63;;;33.74
73673;BMP280;61972;19.480;-99.240;2023-08-31T02:34:11;77701.84;;;33.74
73673;BMP280;61972;19.480;-99.240;2023-08-31T02:36:37;77709.78;;;33.74
73673;BMP280;61972;19.480;-99.240;2023-08-31T02:39:03;77706.47;;;33.71
73673;BMP280;61972;19.480;-99.240;2023-08-31T02:41:29;77712.22;;;33.69
73673;BMP280;61972;19.480;-99.240;2023-08-31T02:43:56;77707.38;;;33.67
73673;BMP280;61972;19.480;-99.240;2023-08-31T02:46:22;77713.69;;;33.65
73673;BMP280;61972;19.480;-99.240;2023-08-31T02:48:48;77720.97;;;33.62
73673;BMP280;61972;19.480;-99.240;2023-08-31T02:51:14;77734.16;;;33.60
73673;BMP280;61972;19.480;-99.240;2023-08-31T02:53:41;77731.41;;;33.57
73673;BMP280;61972;19.480;-99.240;2023-08-31T02:56:07;77740.91;;;33.56
73673;BMP280;61972;19.480;-99.240;2023-08-31T02:58:33;77742.34;;;33.53
73673;BMP280;61972;19.480;-99.240;2023-08-31T03:01:07;77752.31;;;33.50
73673;BMP280;61972;19.480;-99.240;2023-08-31T03:03:34;77752.75;;;33.47
73673;BMP280;61972;19.480;-99.240;2023-08-31T03:06:00;77760.03;;;33.44
73673;BMP280;61972;19.480;-99.240;2023-08-31T03:08:26;77749.91;;;33.42
73673;BMP280;61972;19.480;-99.240;2023-08-31T03:11:12;77759.84;;;33.39
73673;BMP280;61972;19.480;-99.240;2023-08-31T03:13:41;77758.75;;;33.38
73673;BMP280;61972;19.480;-99.240;2023-08-31T03:16:19;77767.16;;;33.36
73673;BMP280;61972;19.480;-99.240;2023-08-31T03:18:45;77764.94;;;33.34
73673;BMP280;61972;19.480;-99.240;2023-08-31T03:21:20;77769.13;;;33.33
73673;BMP280;61972;19.480;-99.240;2023-08-31T03:23:51;77765.38;;;33.32
73673;BMP280;61972;19.480;-99.240;2023-08-31T03:26:18;77763.28;;;33.33
73673;BMP280;61972;19.480;-99.240;2023-08-31T03:28:44;77764.94;;;33.34
73673;BMP280;61972;19.480;-99.240;2023-08-31T03:31:10;77768.03;;;33.32
73673;BMP280;61972;19.480;-99.240;2023-08-31T03:33:36;77770.69;;;33.32
73673;BMP280;61972;19.480;-99.240;2023-08-31T03:36:05;77781.28;;;33.32
73673;BMP280;61972;19.480;-99.240;2023-08-31T03:38:32;77779.19;;;33.33
73673;BMP280;61972;19.480;-99.240;2023-08-31T03:41:03;77781.84;;;33.33
73673;BMP280;61972;19.480;-99.240;2023-08-31T03:43:29;77783.94;;;33.32
73673;BMP280;61972;19.480;-99.240;2023-08-31T03:45:56;77785.03;;;33.33
73673;BMP280;61972;19.480;-99.240;2023-08-31T03:48:24;77791.88;;;33.32
73673;BMP280;61972;19.480;-99.240;2023-08-31T03:50:54;77791.34;;;33.32
73673;BMP280;61972;19.480;-99.240;2023-08-31T03:53:20;77783.94;;;33.32
73673;BMP280;61972;19.480;-99.240;2023-08-31T03:55:46;77792.44;;;33.33
73673;BMP280;61972;19.480;-99.240;2023-08-31T03:58:13;77797.19;;;33.32
73673;BMP280;61972;19.480;-99.240;2023-08-31T04:00:39;77797.19;;;33.32
73673;BMP280;61972;19.480;-99.240;2023-08-31T04:03:06;77799.84;;;33.32
73673;BMP280;61972;19.480;-99.240;2023-08-31T04:05:32;77801.81;;;33.29
73673;BMP280;61972;19.480;-99.240;2023-08-31T04:08:00;77807.56;;;33.27
73673;BMP280;61972;19.480;-99.240;2023-08-31T04:10:26;77807.44;;;33.24
73673;BMP280;61972;19.480;-99.240;2023-08-31T04:12:53;77805.81;;;33.23
73673;BMP280;61972;19.480;-99.240;2023-08-31T04:15:19;77815.28;;;33.22
73673;BMP280;61972;19.480;-99.240;2023-08-31T04:17:45;77815.75;;;33.20
73673;BMP280;61972;19.480;-99.240;2023-08-31T04:20:11;77819.94;;;33.19
73673;BMP280;61972;19.480;-99.240;2023-08-31T04:22:38;77820.38;;;33.17
73673;BMP280;61972;19.480;-99.240;2023-08-31T04:25:04;77822.38;;;33.14
73673;BMP280;61972;19.480;-99.240;2023-08-31T04:27:31;77825.47;;;33.12
73673;BMP280;61972;19.480;-99.240;2023-08-31T04:30:01;77821.63;;;33.08
73673;BMP280;61972;19.480;-99.240;2023-08-31T04:32:28;77823.63;;;33.05
73673;BMP280;61972;19.480;-99.240;2023-08-31T04:34:55;77825.03;;;33.01
73673;BMP280;61972;19.480;-99.240;2023-08-31T04:37:24;77830.13;;;32.96
73673;BMP280;61972;19.480;-99.240;2023-08-31T04:39:50;77830.56;;;32.94
73673;BMP280;61972;19.480;-99.240;2023-08-31T04:42:16;77828.34;;;32.92
73673;BMP280;61972;19.480;-99.240;2023-08-31T04:44:42;77835.66;;;32.89
73673;BMP280;61972;19.480;-99.240;2023-08-31T04:47:08;77830.78;;;32.87
73673;BMP280;61972;19.480;-99.240;2023-08-31T04:49:35;77840.16;;;32.83
73673;BMP280;61972;19.480;-99.240;2023-08-31T04:52:01;77834.22;;;32.80
73673;BMP280;61972;19.480;-99.240;2023-08-31T04:54:27;77832.53;;;32.79
73673;BMP280;61972;19.480;-99.240;2023-08-31T04:56:53;77831.91;;;32.76
73673;BMP280;61972;19.480;-99.240;2023-08-31T04:59:19;77837.63;;;32.74
73673;BMP280;61972;19.480;-99.240;2023-08-31T05:01:45;77840.72;;;32.72
73673;BMP280;61972;19.480;-99.240;2023-08-31T05:04:11;77841.72;;;32.70
73673;BMP280;61972;19.480;-99.240;2023-08-31T05:06:39;77853.84;;;32.69
73673;BMP280;61972;19.480;-99.240;2023-08-31T05:09:07;77855.81;;;32.66
73673;BMP280;61972;19.480;-99.240;2023-08-31T05:11:36;77851.97;;;32.62
73673;BMP280;61972;19.480;-99.240;2023-08-31T05:14:07;77848.09;;;32.59
73673;BMP280;61972;19.480;-99.240;2023-08-31T05:16:36;77853.28;;;32.56
73673;BMP280;61972;19.480;-99.240;2023-08-31T05:19:04;77856.78;;;32.52
73673;BMP280;61972;19.480;-99.240;2023-08-31T05:21:30;77857.13;;;32.47
73673;BMP280;61972;19.480;-99.240;2023-08-31T05:23:57;77852.16;;;32.43
73673;BMP280;61972;19.480;-99.240;2023-08-31T05:26:26;77851.03;;;32.42
73673;BMP280;61972;19.480;-99.240;2023-08-31T05:29:00;77853.16;;;32.41
73673;BMP280;61972;19.480;-99.240;2023-08-31T05:31:27;77850.59;;;32.44
73673;BMP280;61972;19.480;-99.240;2023-08-31T05:33:54;77857.56;;;32.45
73673;BMP280;61972;19.480;-99.240;2023-08-31T05:36:21;77853.50;;;32.49
73673;BMP280;61972;19.480;-99.240;2023-08-31T05:38:48;77847.31;;;32.53
73673;BMP280;61972;19.480;-99.240;2023-08-31T05:41:14;77847.53;;;32.58
73673;BMP280;61972;19.480;-99.240;2023-08-31T05:43:42;77847.22;;;32.63
73673;BMP280;61972;19.480;-99.240;2023-08-31T05:46:08;77848.56;;;32.69
73673;BMP280;61972;19.480;-99.240;2023-08-31T05:48:35;77848.75;;;32.74
73673;BMP280;61972;19.480;-99.240;2023-08-31T05:51:02;77849.00;;;32.79
73673;BMP280;61972;19.480;-99.240;2023-08-31T05:53:32;77844.47;;;32.85
73673;BMP280;61972;19.480;-99.240;2023-08-31T05:55:59;77832.53;;;32.91
73673;BMP280;61972;19.480;-99.240;2023-08-31T05:58:41;77829.00;;;32.95
73673;BMP280;61972;19.480;-99.240;2023-08-31T06:01:07;77822.84;;;32.99
73673;BMP280;61972;19.480;-99.240;2023-08-31T06:03:34;77823.03;;;33.04
73673;BMP280;61972;19.480;-99.240;2023-08-31T06:06:02;77821.16;;;33.10
73673;BMP280;61972;19.480;-99.240;2023-08-31T06:08:29;77819.72;;;33.14
73673;BMP280;61972;19.480;-99.240;2023-08-31T06:10:56;77826.78;;;33.18
73673;BMP280;61972;19.480;-99.240;2023-08-31T06:13:22;77816.84;;;33.21
73673;BMP280;61972;19.480;-99.240;2023-08-31T06:15:48;77822.81;;;33.24
73673;BMP280;61972;19.480;-99.240;2023-08-31T06:18:14;77827.22;;;33.28
73673;BMP280;61972;19.480;-99.240;2023-08-31T06:20:40;77824.09;;;33.30
73673;BMP280;61972;19.480;-99.240;2023-08-31T06:23:07;77820.59;;;33.34
73673;BMP280;61972;19.480;-99.240;2023-08-31T06:25:33;77820.13;;;33.36
73673;BMP280;61972;19.480;-99.240;2023-08-31T06:27:59;77817.03;;;33.38
73673;BMP280;61972;19.480;-99.240;2023-08-31T06:30:25;77819.25;;;33.40
73673;BMP280;61972;19.480;-99.240;2023-08-31T06:32:51;77814.56;;;33.43
73673;BMP280;61972;19.480;-99.240;2023-08-31T06:35:17;77813.03;;;33.44
73673;BMP280;61972;19.480;-99.240;2023-08-31T06:37:45;77817.88;;;33.46
73673;BMP280;61972;19.480;-99.240;2023-08-31T06:40:11;77811.06;;;33.47
73673;BMP280;61972;19.480;-99.240;2023-08-31T06:42:38;77816.34;;;33.47
73673;BMP280;61972;19.480;-99.240;2023-08-31T06:45:06;77814.38;;;33.51
73673;BMP280;61972;19.480;-99.240;2023-08-31T06:47:33;77816.00;;;33.52
73673;BMP280;61972;19.480;-99.240;2023-08-31T06:50:00;77806.41;;;33.51
73673;BMP280;61972;19.480;-99.240;2023-08-31T06:52:27;77808.63;;;33.53
73673;BMP280;61972;19.480;-99.240;2023-08-31T06:54:53;77809.69;;;33.54
73673;BMP280;61972;19.480;-99.240;2023-08-31T06:57:23;77805.50;;;33.55
73673;BMP280;61972;19.480;-99.240;2023-08-31T06:59:50;77802.41;;;33.57
73673;BMP280;61972;19.480;-99.240;2023-08-31T07:02:16;77801.41;;;33.58
73673;BMP280;61972;19.480;-99.240;2023-08-31T07:04:44;77794.00;;;33.59
73673;BMP280;61972;19.480;-99.240;2023-08-31T07:07:11;77794.09;;;33.61
73673;BMP280;61972;19.480;-99.240;2023-08-31T07:09:44;77795.75;;;33.63
73673;BMP280;61972;19.480;-99.240;2023-08-31T07:12:10;77791.56;;;33.64
73673;BMP280;61972;19.480;-99.240;2023-08-31T07:14:36;77789.44;;;33.64
73673;BMP280;61972;19.480;-99.240;2023-08-31T07:17:03;77791.13;;;33.66
73673;BMP280;61972;19.480;-99.240;2023-08-31T07:19:29;77793.78;;;33.66
73673;BMP280;61972;19.480;-99.240;2023-08-31T07:21:55;77792.66;;;33.65
73673;BMP280;61972;19.480;-99.240;2023-08-31T07:24:23;77792.66;;;33.65
73673;BMP280;61972;19.480;-99.240;2023-08-31T07:26:50;77794.88;;;33.67
73673;BMP280;61972;19.480;-99.240;2023-08-31T07:29:16;77799.63;;;33.66
73673;BMP280;61972;19.480;-99.240;2023-08-31T07:31:42;77800.16;;;33.67
73673;BMP280;61972;19.480;-99.240;2023-08-31T07:34:08;77789.56;;;33.67
73673;BMP280;61972;19.480;-99.240;2023-08-31T07:36:34;77793.97;;;33.71
73673;BMP280;61972;19.480;-99.240;2023-08-31T07:39:00;77784.44;;;33.72
73673;BMP280;61972;19.480;-99.240;2023-08-31T07:41:27;77790.84;;;33.73
73673;BMP280;61972;19.480;-99.240;2023-08-31T07:43:53;77791.97;;;33.74
73673;BMP280;61972;19.480;-99.240;2023-08-31T07:46:19;77787.75;;;33.75
73673;BMP280;61972;19.480;-99.240;2023-08-31T07:48:45;77783.00;;;33.76
73673;BMP280;61972;19.480;-99.240;2023-08-31T07:51:14;77788.88;;;33.76
73673;BMP280;61972;19.480;-99.240;2023-08-31T07:53:40;77788.31;;;33.76
73673;BMP280;61972;19.480;-99.240;2023-08-31T07:56:06;77783.56;;;33.76
73673;BMP280;61972;19.480;-99.240;2023-08-31T07:58:32;77778.25;;;33.76
73673;BMP280;61972;19.480;-99.240;2023-08-31T08:00:58;77780.91;;;33.76
73673;BMP280;61972;19.480;-99.240;2023-08-31T08:03:25;77774.50;;;33.75
73673;BMP280;61972;19.480;-99.240;2023-08-31T08:05:51;77774.41;;;33.73
73673;BMP280;61972;19.480;-99.240;2023-08-31T08:08:17;77776.50;;;33.72
73673;BMP280;61972;19.480;-99.240;2023-08-31T08:10:44;77778.06;;;33.71
73673;BMP280;61972;19.480;-99.240;2023-08-31T08:13:11;77772.75;;;33.71
73673;BMP280;61972;19.480;-99.240;2023-08-31T08:15:38;77773.19;;;33.69
73673;BMP280;61972;19.480;-99.240;2023-08-31T08:18:04;77768.34;;;33.67
73673;BMP280;61972;19.480;-99.240;2023-08-31T08:20:31;77764.63;;;33.66
73673;BMP280;61972;19.480;-99.240;2023-08-31T08:22:57;77762.94;;;33.64
73673;BMP280;61972;19.480;-99.240;2023-08-31T08:25:24;77761.84;;;33.63
73673;BMP280;61972;19.480;-99.240;2023-08-31T08:27:50;77763.97;;;33.63
73673;BMP280;61972;19.480;-99.240;2023-08-31T08:30:16;77762.31;;;33.61
73673;BMP280;61972;19.480;-99.240;2023-08-31T08:32:44;77758.56;;;33.60
73673;BMP280;61972;19.480;-99.240;2023-08-31T08:35:10;77759.00;;;33.58
73673;BMP280;61972;19.480;-99.240;2023-08-31T08:37:36;77750.50;;;33.58
73673;BMP280;61972;19.480;-99.240;2023-08-31T08:40:02;77752.03;;;33.57
73673;BMP280;61972;19.480;-99.240;2023-08-31T08:42:30;77749.38;;;33.57
73673;BMP280;61972;19.480;-99.240;2023-08-31T08:45:01;77744.56;;;33.55
73673;BMP280;61972;19.480;-99.240;2023-08-31T08:47:28;77740.16;;;33.51
73673;BMP280;61972;19.480;-99.240;2023-08-31T08:49:55;77738.84;;;33.44
73673;BMP280;61972;19.480;-99.240;2023-08-31T08:52:23;77741.75;;;33.37
73673;BMP280;61972;19.480;-99.240;2023-08-31T08:54:50;77742.44;;;33.28
73673;BMP280;61972;19.480;-99.240;2023-08-31T08:57:17;77744.13;;;33.17
73673;BMP280;61972;19.480;-99.240;2023-08-31T08:59:43;77739.97;;;33.06
73673;BMP280;61972;19.480;-99.240;2023-08-31T09:02:10;77740.00;;;32.94
73673;BMP280;61972;19.480;-99.240;2023-08-31T09:04:40;77745.84;;;32.82
73673;BMP280;61972;19.480;-99.240;2023-08-31T09:07:06;77733.72;;;32.71
73673;BMP280;61972;19.480;-99.240;2023-08-31T09:09:32;77735.97;;;32.60
73673;BMP280;61972;19.480;-99.240;2023-08-31T09:12:06;77730.91;;;32.53
73673;BMP280;61972;19.480;-99.240;2023-08-31T09:14:33;77726.50;;;32.49
73673;BMP280;61972;19.480;-99.240;2023-08-31T09:16:59;77730.69;;;32.48
73673;BMP280;61972;19.480;-99.240;2023-08-31T09:19:25;77728.69;;;32.51
73673;BMP280;61972;19.480;-99.240;2023-08-31T09:21:56;77730.56;;;32.58
73673;BMP280;61972;19.480;-99.240;2023-08-31T09:24:23;77727.13;;;32.64
73673;BMP280;61972;19.480;-99.240;2023-08-31T09:26:57;77733.41;;;32.75
73673;BMP280;61972;19.480;-99.240;2023-08-31T09:29:24;77722.69;;;32.85
73673;BMP280;61972;19.480;-99.240;2023-08-31T09:31:50;77726.41;;;32.98
73673;BMP280;61972;19.480;-99.240;2023-08-31T09:34:17;77729.69;;;33.14
73673;BMP280;61972;19.480;-99.240;2023-08-31T09:36:44;77724.00;;;33.31
73673;BMP280;61972;19.480;-99.240;2023-08-31T09:39:12;77724.69;;;33.49
73673;BMP280;61972;19.480;-99.240;2023-08-31T09:41:58;77721.84;;;33.71
73673;BMP280;61972;19.480;-99.240;2023-08-31T09:44:29;77720.53;;;33.92
73673;BMP280;61972;19.480;-99.240;2023-08-31T09:46:56;77722.94;;;34.14
73673;BMP280;61972;19.480;-99.240;2023-08-31T09:49:24;77717.34;;;34.36
73673;BMP280;61972;19.480;-99.240;2023-08-31T09:51:52;77716.44;;;34.55
73673;BMP280;61972;19.480;-99.240;2023-08-31T09:54:19;77715.97;;;34.72
73673;BMP280;61972;19.480;-99.240;2023-08-31T09:56:47;77711.72;;;34.88
73673;BMP280;61972;19.480;-99.240;2023-08-31T09:59:15;77715.34;;;35.01
73673;BMP280;61972;19.480;-99.240;2023-08-31T10:01:44;77714.78;;;35.15
73673;BMP280;61972;19.480;-99.240;2023-08-31T10:04:10;77713.56;;;35.27
73673;BMP280;61972;19.480;-99.240;2023-08-31T10:06:42;77716.53;;;35.37
73673;BMP280;61972;19.480;-99.240;2023-08-31T10:09:09;77717.91;;;35.45
73673;BMP280;61972;19.480;-99.240;2023-08-31T10:11:38;77712.81;;;35.53
73673;BMP280;61972;19.480;-99.240;2023-08-31T10:14:06;77715.72;;;35.61
73673;BMP280;61972;19.480;-99.240;2023-08-31T10:16:32;77714.41;;;35.70
73673;BMP280;61972;19.480;-99.240;2023-08-31T10:18:59;77719.97;;;35.77
73673;BMP280;61972;19.480;-99.240;2023-08-31T10:21:25;77715.44;;;35.85
73673;BMP280;61972;19.480;-99.240;2023-08-31T10:23:51;77715.66;;;35.93
73673;BMP280;61972;19.480;-99.240;2023-08-31T10:26:27;77720.13;;;36.00
73673;BMP280;61972;19.480;-99.240;2023-08-31T10:28:54;77720.59;;;35.98
73673;BMP280;61972;19.480;-99.240;2023-08-31T10:31:21;77725.13;;;35.90
73673;BMP280;61972;19.480;-99.240;2023-08-31T10:34:05;77727.84;;;35.75
73673;BMP280;61972;19.480;-99.240;2023-08-31T10:36:38;77729.47;;;35.59
73673;BMP280;61972;19.480;-99.240;2023-08-31T10:41:39;77728.16;;;35.18
73673;BMP280;61972;19.480;-99.240;2023-08-31T10:46:45;77737.75;;;34.72
73673;BMP280;61972;19.480;-99.240;2023-08-31T10:51:43;77735.09;;;34.28
73673;BMP280;61972;19.480;-99.240;2023-08-31T10:54:33;77736.34;;;34.04
73673;BMP280;61972;19.480;-99.240;2023-08-31T10:57:04;77742.97;;;33.83
73673;BMP280;61972;19.480;-99.240;2023-08-31T11:02:10;77754.09;;;33.41
73673;BMP280;61972;19.480;-99.240;2023-08-31T11:04:55;77745.34;;;33.21
73673;BMP280;61972;19.480;-99.240;2023-08-31T11:07:26;77746.16;;;33.02
73673;BMP280;61972;19.480;-99.240;2023-08-31T11:10:13;77753.38;;;32.84
73673;BMP280;61972;19.480;-99.240;2023-08-31T11:12:41;77750.50;;;32.66
73673;BMP280;61972;19.480;-99.240;2023-08-31T11:15:08;77752.06;;;32.53
73673;BMP280;61972;19.480;-99.240;2023-08-31T11:17:36;77742.47;;;32.39
73673;BMP280;61972;19.480;-99.240;2023-08-31T11:20:05;77747.63;;;32.24
73673;BMP280;61972;19.480;-99.240;2023-08-31T11:22:31;77749.75;;;32.12
73673;BMP280;61972;19.480;-99.240;2023-08-31T11:24:58;77761.28;;;31.98
73673;BMP280;61972;19.480;-99.240;2023-08-31T11:27:25;77767.66;;;31.86
73673;BMP280;61972;19.480;-99.240;2023-08-31T11:29:51;77760.25;;;31.75
73673;BMP280;61972;19.480;-99.240;2023-08-31T11:32:17;77750.75;;;31.63
73673;BMP280;61972;19.480;-99.240;2023-08-31T11:34:45;77753.50;;;31.54
73673;BMP280;61972;19.480;-99.240;2023-08-31T11:37:12;77757.19;;;31.42
73673;BMP280;61972;19.480;-99.240;2023-08-31T11:39:49;77762.00;;;31.32
73673;BMP280;61972;19.480;-99.240;2023-08-31T11:42:16;77768.47;;;31.23
73673;BMP280;61972;19.480;-99.240;2023-08-31T11:44:45;77763.25;;;31.13
73673;BMP280;61972;19.480;-99.240;2023-08-31T11:47:13;77760.78;;;31.06
73673;BMP280;61972;19.480;-99.240;2023-08-31T11:49:41;77761.41;;;30.97
73673;BMP280;61972;19.480;-99.240;2023-08-31T11:52:10;77761.03;;;30.89
73673;BMP280;61972;19.480;-99.240;2023-08-31T11:54:41;77763.28;;;30.82
73673;BMP280;61972;19.480;-99.240;2023-08-31T11:57:08;77767.78;;;30.76
73673;BMP280;61972;19.480;-99.240;2023-08-31T11:59:36;77775.31;;;30.68
73673;BMP280;61972;19.480;-99.240;2023-08-31T12:02:06;77778.13;;;30.61
73673;BMP280;61972;19.480;-99.240;2023-08-31T12:04:45;77782.03;;;30.55
73673;BMP280;61972;19.480;-99.240;2023-08-31T12:07:16;77785.53;;;30.51
73673;BMP280;61972;19.480;-99.240;2023-08-31T12:09:42;77784.72;;;30.45
73673;BMP280;61972;19.480;-99.240;2023-08-31T12:12:10;77785.44;;;30.39
73673;BMP280;61972;19.480;-99.240;2023-08-31T12:14:38;77791.56;;;30.34
73673;BMP280;61972;19.480;-99.240;2023-08-31T12:17:07;77791.28;;;30.29
73673;BMP280;61972;19.480;-99.240;2023-08-31T12:19:36;77791.06;;;30.24
73673;BMP280;61972;19.480;-99.240;2023-08-31T12:22:02;77787.16;;;30.21
73673;BMP280;61972;19.480;-99.240;2023-08-31T12:24:28;77782.19;;;30.16
73673;BMP280;61972;19.480;-99.240;2023-08-31T12:26:54;77788.31;;;30.12
73673;BMP280;61972;19.480;-99.240;2023-08-31T12:29:21;77789.16;;;30.08
73673;BMP280;61972;19.480;-99.240;2023-08-31T12:31:49;77786.81;;;30.03
73673;BMP280;61972;19.480;-99.240;2023-08-31T12:34:16;77792.91;;;29.99
73673;BMP280;61972;19.480;-99.240;2023-08-31T12:36:42;77794.31;;;29.95
73673;BMP280;61972;19.480;-99.240;2023-08-31T12:39:08;77785.19;;;29.92
73673;BMP280;61972;19.480;-99.240;2023-08-31T12:41:38;77786.56;;;29.88
73673;BMP280;61972;19.480;-99.240;2023-08-31T12:44:06;77783.78;;;29.86
73673;BMP280;61972;19.480;-99.240;2023-08-31T12:46:32;77786.69;;;29.81
73673;BMP280;61972;19.480;-99.240;2023-08-31T12:49:00;77787.69;;;29.80
73673;BMP280;61972;19.480;-99.240;2023-08-31T12:51:31;77778.53;;;29.76
73673;BMP280;61972;19.480;-99.240;2023-08-31T12:53:57;77783.13;;;29.73
73673;BMP280;61972;19.480;-99.240;2023-08-31T12:56:24;77778.72;;;29.69
73673;BMP280;61972;19.480;-99.240;2023-08-31T12:58:51;77782.31;;;29.67
73673;BMP280;61972;19.480;-99.240;2023-08-31T13:01:18;77782.16;;;29.65
73673;BMP280;61972;19.480;-99.240;2023-08-31T13:03:45;77785.22;;;29.63
73673;BMP280;61972;19.480;-99.240;2023-08-31T13:06:15;77784.53;;;29.59
73673;BMP280;61972;19.480;-99.240;2023-08-31T13:08:42;77781.22;;;29.56
73673;BMP280;61972;19.480;-99.240;2023-08-31T13:11:10;77786.34;;;29.54
73673;BMP280;61972;19.480;-99.240;2023-08-31T13:13:38;77790.50;;;29.53
73673;BMP280;61972;19.480;-99.240;2023-08-31T13:16:04;77789.81;;;29.50
73673;BMP280;61972;19.480;-99.240;2023-08-31T13:18:30;77793.38;;;29.48
73673;BMP280;61972;19.480;-99.240;2023-08-31T13:20:56;77795.38;;;29.45
73673;BMP280;61972;19.480;-99.240;2023-08-31T13:23:23;77795.78;;;29.43
73673;BMP280;61972;19.480;-99.240;2023-08-31T13:25:49;77801.44;;;29.41
73673;BMP280;61972;19.480;-99.240;2023-08-31T13:28:16;77804.50;;;29.39
73673;BMP280;61972;19.480;-99.240;2023-08-31T13:30:42;77801.72;;;29.36
73673;BMP280;61972;19.480;-99.240;2023-08-31T13:33:08;77805.31;;;29.35
73673;BMP280;61972;19.480;-99.240;2023-08-31T13:35:35;77814.75;;;29.34
73673;BMP280;61972;19.480;-99.240;2023-08-31T13:38:02;77816.28;;;29.33
73673;BMP280;61972;19.480;-99.240;2023-08-31T13:40:29;77812.53;;;29.32
73673;BMP280;61972;19.480;-99.240;2023-08-31T13:42:59;77823.50;;;29.30
73673;BMP280;61972;19.480;-99.240;2023-08-31T13:45:32;77829.69;;;29.28
73673;BMP280;61972;19.480;-99.240;2023-08-31T13:47:59;77823.34;;;29.27
73673;BMP280;61972;19.480;-99.240;2023-08-31T13:50:30;77832.19;;;29.26
73673;BMP280;61972;19.480;-99.240;2023-08-31T13:52:56;77831.09;;;29.25
73673;BMP280;61972;19.480;-99.240;2023-08-31T13:55:23;77834.13;;;29.23
73673;BMP280;61972;19.480;-99.240;2023-08-31T13:57:49;77838.28;;;29.21
73673;BMP280;61972;19.480;-99.240;2023-08-31T14:00:15;77830.81;;;29.19
73673;BMP280;61972;19.480;-99.240;2023-08-31T14:02:42;77829.72;;;29.18
73673;BMP280;61972;19.480;-99.240;2023-08-31T14:05:12;77836.50;;;29.17
73673;BMP280;61972;19.480;-99.240;2023-08-31T14:07:40;77831.63;;;29.15